sensor_id;sensor_type;location;lat;lon;timestamp;temperature;humidity
46976;DHT22;32724;51.094;6.996;2022-09-28T00:01:04;7.70;99.90
46976;DHT22;32724;51.094;6.996;2022-09-28T00:03:29;7.80;99.90
46976;DHT22;32724;51.094;6.996;2022-09-28T00:05:59;8.00;99.90
46976;DHT22;32724;51.094;6.996;2022-09-28T00:08:25;8.10;99.90
46976;DHT22;32724;51.094;6.996;2022-09-28T00:10:53;8.20;99.90
46976;DHT22;32724;51.094;6.996;2022-09-28T00:13:19;8.30;99.90
46976;DHT22;32724;51.094;6.996;2022-09-28T00:15:45;8.40;99.90
46976;DHT22;32724;51.094;6.996;2022-09-28T00:18:10;8.40;99.90
46976;DHT22;32724;51.094;6.996;2022-09-28T00:20:35;8.40;99.90
46976;DHT22;32724;51.094;6.996;2022-09-28T00:23:01;8.40;99.90
46976;DHT22;32724;51.094;6.996;2022-09-28T00:25:27;8.40;99.90
46976;DHT22;32724;51.094;6.996;2022-09-28T00:27:54;8.40;99.90
46976;DHT22;32724;51.094;6.996;2022-09-28T00:30:21;8.40;99.90
46976;DHT22;32724;51.094;6.996;2022-09-28T00:32:47;8.40;99.90
46976;DHT22;32724;51.094;6.996;2022-09-28T00:35:12;8.40;99.90
46976;DHT22;32724;51.094;6.996;2022-09-28T00:37:38;8.30;99.90
46976;DHT22;32724;51.094;6.996;2022-09-28T00:40:04;7.90;99.90
46976;DHT22;32724;51.094;6.996;2022-09-28T00:42:30;7.80;99.90
46976;DHT22;32724;51.094;6.996;2022-09-28T00:44:56;7.80;99.90
46976;DHT22;32724;51.094;6.996;2022-09-28T00:50:11;7.80;99.90
46976;DHT22;32724;51.094;6.996;2022-09-28T00:52:43;7.80;99.90
46976;DHT22;32724;51.094;6.996;2022-09-28T00:55:14;7.90;99.90
46976;DHT22;32724;51.094;6.996;2022-09-28T00:57:42;7.90;99.90
46976;DHT22;32724;51.094;6.996;2022-09-28T01:00:08;8.00;99.90
46976;DHT22;32724;51.094;6.996;2022-09-28T01:02:34;8.00;99.90
46976;DHT22;32724;51.094;6.996;2022-09-28T01:05:00;8.10;99.90
46976;DHT22;32724;51.094;6.996;2022-09-28T01:07:27;8.20;99.90
46976;DHT22;32724;51.094;6.996;2022-09-28T01:09:53;8.20;99.90
46976;DHT22;32724;51.094;6.996;2022-09-28T01:12:19;8.30;99.90
46976;DHT22;32724;51.094;6.996;2022-09-28T01:14:44;8.30;99.90
46976;DHT22;32724;51.094;6.996;2022-09-28T01:28:13;8.40;99.90
46976;DHT22;32724;51.094;6.996;2022-09-28T01:30:55;8.40;99.90
46976;DHT22;32724;51.094;6.996;2022-09-28T01:33:21;8.10;99.90
46976;DHT22;32724;51.094;6.996;2022-09-28T01:35:52;7.90;99.90
46976;DHT22;32724;51.094;6.996;2022-09-28T01:40:45;7.90;99.90
46976;DHT22;32724;51.094;6.996;2022-09-28T01:43:13;7.90;99.90
46976;DHT22;32724;51.094;6.996;2022-09-28T01:45:42;8.00;99.90
46976;DHT22;32724;51.094;6.996;2022-09-28T01:48:08;8.00;99.90
46976;DHT22;32724;51.094;6.996;2022-09-28T01:50:35;8.00;99.90
46976;DHT22;32724;51.094;6.996;2022-09-28T01:55:38;8.10;99.90
46976;DHT22;32724;51.094;6.996;2022-09-28T01:58:10;8.20;99.90
46976;DHT22;32724;51.094;6.996;2022-09-28T02:00:38;8.30;99.90
46976;DHT22;32724;51.094;6.996;2022-09-28T02:03:10;8.30;99.90
46976;DHT22;32724;51.094;6.996;2022-09-28T02:05:38;8.40;99.90
46976;DHT22;32724;51.094;6.996;2022-09-28T02:08:08;8.40;99.90
46976;DHT22;32724;51.094;6.996;2022-09-28T02:10:40;8.40;99.90
46976;DHT22;32724;51.094;6.996;2022-09-28T02:13:11;8.40;99.90
46976;DHT22;32724;51.094;6.996;2022-09-28T02:15:42;8.40;99.90
46976;DHT22;32724;51.094;6.996;2022-09-28T02:18:10;8.40;99.90
46976;DHT22;32724;51.094;6.996;2022-09-28T02:20:35;8.40;99.90
46976;DHT22;32724;51.094;6.996;2022-09-28T02:23:02;8.40;99.90
46976;DHT22;32724;51.094;6.996;2022-09-28T02:25:29;8.50;99.90
46976;DHT22;32724;51.094;6.996;2022-09-28T02:27:59;8.50;99.90
46976;DHT22;32724;51.094;6.996;2022-09-28T02:30:24;8.10;99.90
46976;DHT22;32724;51.094;6.996;2022-09-28T02:32:51;8.00;99.90
46976;DHT22;32724;51.094;6.996;2022-09-28T02:35:18;8.00;99.90
46976;DHT22;32724;51.094;6.996;2022-09-28T02:37:44;8.00;99.90
46976;DHT22;32724;51.094;6.996;2022-09-28T02:40:14;8.00;99.90
46976;DHT22;32724;51.094;6.996;2022-09-28T02:45:23;8.00;99.90
46976;DHT22;32724;51.094;6.996;2022-09-28T02:58:24;8.50;99.90
46976;DHT22;32724;51.094;6.996;2022-09-28T03:03:29;8.50;99.90
46976;DHT22;32724;51.094;6.996;2022-09-28T03:08:26;8.50;99.90
46976;DHT22;32724;51.094;6.996;2022-09-28T03:11:06;8.60;99.90
46976;DHT22;32724;51.094;6.996;2022-09-28T03:13:31;8.60;99.90
46976;DHT22;32724;51.094;6.996;2022-09-28T03:16:08;8.60;99.90
46976;DHT22;32724;51.094;6.996;2022-09-28T03:18:34;8.60;99.90
46976;DHT22;32724;51.094;6.996;2022-09-28T03:21:00;8.60;99.90
46976;DHT22;32724;51.094;6.996;2022-09-28T03:23:25;8.60;99.90
46976;DHT22;32724;51.094;6.996;2022-09-28T03:25:51;8.60;99.90
46976;DHT22;32724;51.094;6.996;2022-09-28T03:28:16;8.30;99.90
46976;DHT22;32724;51.094;6.996;2022-09-28T03:30:46;8.20;99.90
46976;DHT22;32724;51.094;6.996;2022-09-28T03:33:12;8.20;99.90
46976;DHT22;32724;51.094;6.996;2022-09-28T03:35:37;8.20;99.90
46976;DHT22;32724;51.094;6.996;2022-09-28T03:38:02;8.20;99.90
46976;DHT22;32724;51.094;6.996;2022-09-28T03:40:28;8.20;99.90
46976;DHT22;32724;51.094;6.996;2022-09-28T03:42:53;8.20;99.90
46976;DHT22;32724;51.094;6.996;2022-09-28T03:45:19;8.30;99.90
46976;DHT22;32724;51.094;6.996;2022-09-28T03:47:45;8.40;99.90
46976;DHT22;32724;51.094;6.996;2022-09-28T03:50:10;8.40;99.90
46976;DHT22;32724;51.094;6.996;2022-09-28T03:52:36;8.50;99.90
46976;DHT22;32724;51.094;6.996;2022-09-28T03:55:01;8.50;99.90
46976;DHT22;32724;51.094;6.996;2022-09-28T03:57:27;8.50;99.90
46976;DHT22;32724;51.094;6.996;2022-09-28T03:59:52;8.50;99.90
46976;DHT22;32724;51.094;6.996;2022-09-28T04:02:18;8.60;99.90
46976;DHT22;32724;51.094;6.996;2022-09-28T04:04:43;8.60;99.90
46976;DHT22;32724;51.094;6.996;2022-09-28T04:07:09;8.60;99.90
46976;DHT22;32724;51.094;6.996;2022-09-28T04:09:34;8.60;99.90
46976;DHT22;32724;51.094;6.996;2022-09-28T04:12:00;8.60;99.90
46976;DHT22;32724;51.094;6.996;2022-09-28T04:14:25;8.60;99.90
46976;DHT22;32724;51.094;6.996;2022-09-28T04:16:51;8.60;99.90
46976;DHT22;32724;51.094;6.996;2022-09-28T04:19:19;8.60;99.90
46976;DHT22;32724;51.094;6.996;2022-09-28T04:21:45;8.30;99.90
46976;DHT22;32724;51.094;6.996;2022-09-28T04:24:10;8.30;99.90
46976;DHT22;32724;51.094;6.996;2022-09-28T04:26:36;8.40;99.90
46976;DHT22;32724;51.094;6.996;2022-09-28T04:29:02;8.40;99.90
46976;DHT22;32724;51.094;6.996;2022-09-28T04:31:41;8.30;99.90
46976;DHT22;32724;51.094;6.996;2022-09-28T04:34:07;8.30;99.90
46976;DHT22;32724;51.094;6.996;2022-09-28T04:36:32;8.30;99.90
46976;DHT22;32724;51.094;6.996;2022-09-28T04:38:58;8.40;99.90
46976;DHT22;32724;51.094;6.996;2022-09-28T04:41:24;8.40;99.90
46976;DHT22;32724;51.094;6.996;2022-09-28T04:43:50;8.50;99.90
46976;DHT22;32724;51.094;6.996;2022-09-28T04:46:16;8.50;99.90
46976;DHT22;32724;51.094;6.996;2022-09-28T04:48:41;8.60;99.90
46976;DHT22;32724;51.094;6.996;2022-09-28T04:51:07;8.50;99.90
46976;DHT22;32724;51.094;6.996;2022-09-28T04:53:32;8.60;99.90
46976;DHT22;32724;51.094;6.996;2022-09-28T04:55:59;8.60;99.90
46976;DHT22;32724;51.094;6.996;2022-09-28T04:58:25;8.60;99.90
46976;DHT22;32724;51.094;6.996;2022-09-28T05:00:51;8.60;99.90
46976;DHT22;32724;51.094;6.996;2022-09-28T05:03:17;8.60;99.90
46976;DHT22;32724;51.094;6.996;2022-09-28T05:05:43;8.50;99.90
46976;DHT22;32724;51.094;6.996;2022-09-28T05:08:09;8.50;99.90
46976;DHT22;32724;51.094;6.996;2022-09-28T05:10:34;8.50;99.90
46976;DHT22;32724;51.094;6.996;2022-09-28T05:13:00;8.40;99.90
46976;DHT22;32724;51.094;6.996;2022-09-28T05:15:26;8.20;99.90
46976;DHT22;32724;51.094;6.996;2022-09-28T05:17:51;8.20;99.90
46976;DHT22;32724;51.094;6.996;2022-09-28T05:20:17;8.10;99.90
46976;DHT22;32724;51.094;6.996;2022-09-28T05:22:43;8.10;99.90
46976;DHT22;32724;51.094;6.996;2022-09-28T05:25:08;8.20;99.90
46976;DHT22;32724;51.094;6.996;2022-09-28T05:27:34;8.20;99.90
46976;DHT22;32724;51.094;6.996;2022-09-28T05:29:59;8.20;99.90
46976;DHT22;32724;51.094;6.996;2022-09-28T05:32:24;8.20;99.90
46976;DHT22;32724;51.094;6.996;2022-09-28T05:34:50;8.30;99.90
46976;DHT22;32724;51.094;6.996;2022-09-28T05:37:18;8.40;99.90
46976;DHT22;32724;51.094;6.996;2022-09-28T05:39:44;8.40;99.90
46976;DHT22;32724;51.094;6.996;2022-09-28T05:42:09;8.40;99.90
46976;DHT22;32724;51.094;6.996;2022-09-28T05:44:35;8.50;99.90
46976;DHT22;32724;51.094;6.996;2022-09-28T05:47:02;8.50;99.90
46976;DHT22;32724;51.094;6.996;2022-09-28T05:49:28;8.50;99.90
46976;DHT22;32724;51.094;6.996;2022-09-28T05:51:55;8.60;99.90
46976;DHT22;32724;51.094;6.996;2022-09-28T05:54:21;8.60;99.90
46976;DHT22;32724;51.094;6.996;2022-09-28T05:56:46;8.60;99.90
46976;DHT22;32724;51.094;6.996;2022-09-28T05:59:12;8.60;99.90
46976;DHT22;32724;51.094;6.996;2022-09-28T06:01:37;8.60;99.90
46976;DHT22;32724;51.094;6.996;2022-09-28T06:04:03;8.70;99.90
46976;DHT22;32724;51.094;6.996;2022-09-28T06:06:28;8.70;99.90
46976;DHT22;32724;51.094;6.996;2022-09-28T06:08:54;8.40;99.90
46976;DHT22;32724;51.094;6.996;2022-09-28T06:11:19;8.20;99.90
46976;DHT22;32724;51.094;6.996;2022-09-28T06:13:45;8.20;99.90
46976;DHT22;32724;51.094;6.996;2022-09-28T06:16:14;8.30;99.90
46976;DHT22;32724;51.094;6.996;2022-09-28T06:18:40;8.30;99.90
46976;DHT22;32724;51.094;6.996;2022-09-28T06:21:06;8.30;99.90
46976;DHT22;32724;51.094;6.996;2022-09-28T06:23:35;8.30;99.90
46976;DHT22;32724;51.094;6.996;2022-09-28T06:26:00;8.40;99.90
46976;DHT22;32724;51.094;6.996;2022-09-28T06:28:26;8.50;99.90
46976;DHT22;32724;51.094;6.996;2022-09-28T06:30:52;8.50;99.90
46976;DHT22;32724;51.094;6.996;2022-09-28T06:33:18;8.60;99.90
46976;DHT22;32724;51.094;6.996;2022-09-28T06:35:43;8.60;99.90
46976;DHT22;32724;51.094;6.996;2022-09-28T06:38:09;8.70;99.90
46976;DHT22;32724;51.094;6.996;2022-09-28T06:40:35;8.70;99.90
46976;DHT22;32724;51.094;6.996;2022-09-28T06:43:01;8.80;99.90
46976;DHT22;32724;51.094;6.996;2022-09-28T06:45:28;8.90;99.90
46976;DHT22;32724;51.094;6.996;2022-09-28T06:47:57;8.90;99.90
46976;DHT22;32724;51.094;6.996;2022-09-28T06:50:24;9.00;99.90
46976;DHT22;32724;51.094;6.996;2022-09-28T06:52:50;9.00;99.90
46976;DHT22;32724;51.094;6.996;2022-09-28T06:55:16;9.00;99.90
46976;DHT22;32724;51.094;6.996;2022-09-28T06:57:41;9.00;99.90
46976;DHT22;32724;51.094;6.996;2022-09-28T07:00:07;9.00;99.90
46976;DHT22;32724;51.094;6.996;2022-09-28T07:02:33;8.90;99.90
46976;DHT22;32724;51.094;6.996;2022-09-28T07:04:58;8.50;99.90
46976;DHT22;32724;51.094;6.996;2022-09-28T07:07:24;8.50;99.90
46976;DHT22;32724;51.094;6.996;2022-09-28T07:09:52;8.50;99.90
46976;DHT22;32724;51.094;6.996;2022-09-28T07:12:19;8.60;99.90
46976;DHT22;32724;51.094;6.996;2022-09-28T07:14:44;8.60;99.90
46976;DHT22;32724;51.094;6.996;2022-09-28T07:17:10;8.60;99.90
46976;DHT22;32724;51.094;6.996;2022-09-28T07:19:35;8.70;99.90
46976;DHT22;32724;51.094;6.996;2022-09-28T07:22:01;8.80;99.90
46976;DHT22;32724;51.094;6.996;2022-09-28T07:24:27;8.90;99.90
46976;DHT22;32724;51.094;6.996;2022-09-28T07:26:55;9.00;99.90
46976;DHT22;32724;51.094;6.996;2022-09-28T07:29:21;9.10;99.90
46976;DHT22;32724;51.094;6.996;2022-09-28T07:31:46;9.30;99.90
46976;DHT22;32724;51.094;6.996;2022-09-28T07:34:11;9.30;99.90
46976;DHT22;32724;51.094;6.996;2022-09-28T07:36:38;9.40;99.90
46976;DHT22;32724;51.094;6.996;2022-09-28T07:39:03;9.50;99.90
46976;DHT22;32724;51.094;6.996;2022-09-28T07:41:28;9.50;99.90
46976;DHT22;32724;51.094;6.996;2022-09-28T07:43:58;9.70;99.90
46976;DHT22;32724;51.094;6.996;2022-09-28T07:46:31;9.80;99.90
46976;DHT22;32724;51.094;6.996;2022-09-28T07:48:56;9.90;99.90
46976;DHT22;32724;51.094;6.996;2022-09-28T07:51:22;9.90;99.90
46976;DHT22;32724;51.094;6.996;2022-09-28T07:53:47;10.00;99.90
46976;DHT22;32724;51.094;6.996;2022-09-28T07:56:13;10.10;99.90
46976;DHT22;32724;51.094;6.996;2022-09-28T07:58:41;10.10;99.90
46976;DHT22;32724;51.094;6.996;2022-09-28T08:01:08;10.00;99.90
46976;DHT22;32724;51.094;6.996;2022-09-28T08:03:35;9.80;99.90
46976;DHT22;32724;51.094;6.996;2022-09-28T08:06:01;9.70;99.90
46976;DHT22;32724;51.094;6.996;2022-09-28T08:08:28;9.80;99.90
46976;DHT22;32724;51.094;6.996;2022-09-28T08:10:54;9.70;99.90
46976;DHT22;32724;51.094;6.996;2022-09-28T08:13:20;9.50;99.90
46976;DHT22;32724;51.094;6.996;2022-09-28T08:15:46;9.70;99.90
46976;DHT22;32724;51.094;6.996;2022-09-28T08:18:16;9.80;99.90
46976;DHT22;32724;51.094;6.996;2022-09-28T08:20:41;10.00;99.90
46976;DHT22;32724;51.094;6.996;2022-09-28T08:23:25;10.20;99.90
46976;DHT22;32724;51.094;6.996;2022-09-28T08:25:51;10.60;99.90
46976;DHT22;32724;51.094;6.996;2022-09-28T08:28:18;10.80;99.90
46976;DHT22;32724;51.094;6.996;2022-09-28T08:30:44;11.10;99.90
46976;DHT22;32724;51.094;6.996;2022-09-28T08:33:11;11.20;99.90
46976;DHT22;32724;51.094;6.996;2022-09-28T08:35:36;11.20;99.90
46976;DHT22;32724;51.094;6.996;2022-09-28T08:38:03;11.30;99.90
46976;DHT22;32724;51.094;6.996;2022-09-28T08:40:28;11.30;99.90
46976;DHT22;32724;51.094;6.996;2022-09-28T08:43:00;11.10;99.90
46976;DHT22;32724;51.094;6.996;2022-09-28T08:45:27;11.00;99.90
46976;DHT22;32724;51.094;6.996;2022-09-28T08:50:48;10.70;99.90
46976;DHT22;32724;51.094;6.996;2022-09-28T08:53:39;10.70;99.90
46976;DHT22;32724;51.094;6.996;2022-09-28T08:56:03;10.70;99.90
46976;DHT22;32724;51.094;6.996;2022-09-28T08:58:31;10.70;99.90
46976;DHT22;32724;51.094;6.996;2022-09-28T09:00:57;10.60;99.90
46976;DHT22;32724;51.094;6.996;2022-09-28T09:03:31;10.60;99.90
46976;DHT22;32724;51.094;6.996;2022-09-28T09:08:36;10.30;99.90
46976;DHT22;32724;51.094;6.996;2022-09-28T09:19:16;10.30;99.90
46976;DHT22;32724;51.094;6.996;2022-09-28T09:21:51;10.60;99.90
46976;DHT22;32724;51.094;6.996;2022-09-28T09:24:24;10.80;99.90
46976;DHT22;32724;51.094;6.996;2022-09-28T09:40:35;10.20;99.90
46976;DHT22;32724;51.094;6.996;2022-09-28T09:45:40;10.30;99.90
46976;DHT22;32724;51.094;6.996;2022-09-28T09:48:30;10.40;99.90
46976;DHT22;32724;51.094;6.996;2022-09-28T09:50:55;10.40;99.90
46976;DHT22;32724;51.094;6.996;2022-09-28T09:55:51;10.80;99.90
46976;DHT22;32724;51.094;6.996;2022-09-28T10:00:48;11.10;99.90
46976;DHT22;32724;51.094;6.996;2022-09-28T10:03:26;11.30;99.90
46976;DHT22;32724;51.094;6.996;2022-09-28T10:06:11;11.50;99.90
46976;DHT22;32724;51.094;6.996;2022-09-28T10:08:39;11.50;99.90
46976;DHT22;32724;51.094;6.996;2022-09-28T10:11:13;11.50;99.90
46976;DHT22;32724;51.094;6.996;2022-09-28T10:13:40;11.60;99.90
46976;DHT22;32724;51.094;6.996;2022-09-28T10:16:07;11.70;99.90
46976;DHT22;32724;51.094;6.996;2022-09-28T10:18:33;11.90;99.90
46976;DHT22;32724;51.094;6.996;2022-09-28T10:20:59;12.00;99.90
46976;DHT22;32724;51.094;6.996;2022-09-28T10:23:35;11.90;99.90
46976;DHT22;32724;51.094;6.996;2022-09-28T10:26:19;12.10;99.90
46976;DHT22;32724;51.094;6.996;2022-09-28T10:28:50;12.30;99.90
46976;DHT22;32724;51.094;6.996;2022-09-28T10:31:35;12.30;99.90
46976;DHT22;32724;51.094;6.996;2022-09-28T10:34:01;11.90;99.90
46976;DHT22;32724;51.094;6.996;2022-09-28T10:36:27;11.70;99.90
46976;DHT22;32724;51.094;6.996;2022-09-28T10:38:53;11.50;99.90
46976;DHT22;32724;51.094;6.996;2022-09-28T10:41:20;11.30;99.90
46976;DHT22;32724;51.094;6.996;2022-09-28T10:43:53;11.40;99.90
46976;DHT22;32724;51.094;6.996;2022-09-28T10:46:33;11.50;99.90
46976;DHT22;32724;51.094;6.996;2022-09-28T10:49:03;11.70;99.90
46976;DHT22;32724;51.094;6.996;2022-09-28T10:51:46;11.80;99.90
46976;DHT22;32724;51.094;6.996;2022-09-28T10:54:15;12.00;99.90
46976;DHT22;32724;51.094;6.996;2022-09-28T10:56:41;12.10;99.90
46976;DHT22;32724;51.094;6.996;2022-09-28T10:59:23;12.10;99.90
46976;DHT22;32724;51.094;6.996;2022-09-28T11:01:53;12.10;99.90
46976;DHT22;32724;51.094;6.996;2022-09-28T11:04:20;12.20;99.90
46976;DHT22;32724;51.094;6.996;2022-09-28T11:06:46;12.30;99.90
46976;DHT22;32724;51.094;6.996;2022-09-28T11:09:30;12.30;99.90
46976;DHT22;32724;51.094;6.996;2022-09-28T11:11:57;12.40;99.90
46976;DHT22;32724;51.094;6.996;2022-09-28T11:14:25;12.50;99.90
46976;DHT22;32724;51.094;6.996;2022-09-28T11:17:13;12.50;99.90
46976;DHT22;32724;51.094;6.996;2022-09-28T11:19:38;12.60;99.90
46976;DHT22;32724;51.094;6.996;2022-09-28T11:22:17;12.60;99.90
46976;DHT22;32724;51.094;6.996;2022-09-28T11:24:44;12.60;99.90
46976;DHT22;32724;51.094;6.996;2022-09-28T11:27:18;12.60;99.90
46976;DHT22;32724;51.094;6.996;2022-09-28T11:29:43;12.70;99.90
46976;DHT22;32724;51.094;6.996;2022-09-28T11:32:15;12.80;99.90
46976;DHT22;32724;51.094;6.996;2022-09-28T11:34:42;13.00;99.90
46976;DHT22;32724;51.094;6.996;2022-09-28T11:39:57;13.00;99.90
46976;DHT22;32724;51.094;6.996;2022-09-28T11:48:12;12.80;99.90
46976;DHT22;32724;51.094;6.996;2022-09-28T11:50:53;12.60;99.90
46976;DHT22;32724;51.094;6.996;2022-09-28T11:56:17;12.30;99.90
46976;DHT22;32724;51.094;6.996;2022-09-28T11:58:48;12.20;99.90
46976;DHT22;32724;51.094;6.996;2022-09-28T12:01:19;12.30;99.90
46976;DHT22;32724;51.094;6.996;2022-09-28T12:03:51;12.60;99.90
46976;DHT22;32724;51.094;6.996;2022-09-28T12:06:18;13.00;99.90
46976;DHT22;32724;51.094;6.996;2022-09-28T12:08:47;13.40;99.90
46976;DHT22;32724;51.094;6.996;2022-09-28T12:11:24;13.80;99.90
46976;DHT22;32724;51.094;6.996;2022-09-28T12:13:51;14.10;99.90
46976;DHT22;32724;51.094;6.996;2022-09-28T12:16:28;14.40;99.90
46976;DHT22;32724;51.094;6.996;2022-09-28T12:19:03;14.40;99.90
46976;DHT22;32724;51.094;6.996;2022-09-28T12:21:43;14.40;99.90
46976;DHT22;32724;51.094;6.996;2022-09-28T12:29:17;13.80;99.90
46976;DHT22;32724;51.094;6.996;2022-09-28T12:31:52;13.60;99.90
46976;DHT22;32724;51.094;6.996;2022-09-28T12:34:21;13.30;99.90
46976;DHT22;32724;51.094;6.996;2022-09-28T12:41:48;13.10;99.90
46976;DHT22;32724;51.094;6.996;2022-09-28T12:47:00;13.30;99.90
46976;DHT22;32724;51.094;6.996;2022-09-28T12:52:24;13.60;99.90
46976;DHT22;32724;51.094;6.996;2022-09-28T12:57:29;13.80;99.90
46976;DHT22;32724;51.094;6.996;2022-09-28T13:02:40;13.80;99.90
46976;DHT22;32724;51.094;6.996;2022-09-28T13:13:05;14.20;99.90
46976;DHT22;32724;51.094;6.996;2022-09-28T13:15:45;14.10;99.90
46976;DHT22;32724;51.094;6.996;2022-09-28T13:23:17;14.00;99.90
46976;DHT22;32724;51.094;6.996;2022-09-28T13:25:54;14.20;99.90
46976;DHT22;32724;51.094;6.996;2022-09-28T13:28:21;14.40;99.90
46976;DHT22;32724;51.094;6.996;2022-09-28T13:30:47;14.50;99.90
46976;DHT22;32724;51.094;6.996;2022-09-28T13:33:16;14.70;99.90
46976;DHT22;32724;51.094;6.996;2022-09-28T13:35:43;14.70;99.90
46976;DHT22;32724;51.094;6.996;2022-09-28T13:43:29;15.30;99.90
46976;DHT22;32724;51.094;6.996;2022-09-28T13:45:56;15.40;99.90
46976;DHT22;32724;51.094;6.996;2022-09-28T13:48:34;15.50;99.90
46976;DHT22;32724;51.094;6.996;2022-09-28T13:51:05;15.60;99.90
46976;DHT22;32724;51.094;6.996;2022-09-28T13:56:36;15.30;99.90
46976;DHT22;32724;51.094;6.996;2022-09-28T13:59:22;15.00;99.90
46976;DHT22;32724;51.094;6.996;2022-09-28T14:01:52;14.80;99.90
46976;DHT22;32724;51.094;6.996;2022-09-28T14:04:23;14.40;99.90
46976;DHT22;32724;51.094;6.996;2022-09-28T14:06:53;14.20;99.90
46976;DHT22;32724;51.094;6.996;2022-09-28T14:09:22;14.10;99.90
46976;DHT22;32724;51.094;6.996;2022-09-28T14:14:24;14.00;99.90
46976;DHT22;32724;51.094;6.996;2022-09-28T14:16:51;14.00;99.90
46976;DHT22;32724;51.094;6.996;2022-09-28T14:19:24;14.00;99.90
46976;DHT22;32724;51.094;6.996;2022-09-28T14:22:05;14.00;99.90
46976;DHT22;32724;51.094;6.996;2022-09-28T14:29:53;13.80;99.90
46976;DHT22;32724;51.094;6.996;2022-09-28T14:32:23;14.00;99.90
46976;DHT22;32724;51.094;6.996;2022-09-28T14:37:47;14.40;99.90
46976;DHT22;32724;51.094;6.996;2022-09-28T14:40:35;14.50;99.90
46976;DHT22;32724;51.094;6.996;2022-09-28T14:48:54;14.80;99.90
46976;DHT22;32724;51.094;6.996;2022-09-28T14:54:02;14.40;99.90
46976;DHT22;32724;51.094;6.996;2022-09-28T14:56:29;14.30;99.90
46976;DHT22;32724;51.094;6.996;2022-09-28T14:58:56;14.00;99.90
46976;DHT22;32724;51.094;6.996;2022-09-28T15:01:22;13.90;99.90
46976;DHT22;32724;51.094;6.996;2022-09-28T15:03:55;13.80;99.90
46976;DHT22;32724;51.094;6.996;2022-09-28T15:06:23;13.80;99.90
46976;DHT22;32724;51.094;6.996;2022-09-28T15:08:49;13.70;99.90
46976;DHT22;32724;51.094;6.996;2022-09-28T15:11:17;13.60;99.90
46976;DHT22;32724;51.094;6.996;2022-09-28T15:13:43;13.50;99.90
46976;DHT22;32724;51.094;6.996;2022-09-28T15:16:09;13.50;99.90
46976;DHT22;32724;51.094;6.996;2022-09-28T15:21:17;13.50;99.90
46976;DHT22;32724;51.094;6.996;2022-09-28T15:23:43;13.40;99.90
46976;DHT22;32724;51.094;6.996;2022-09-28T15:26:22;13.30;99.90
46976;DHT22;32724;51.094;6.996;2022-09-28T15:28:49;13.20;99.90
46976;DHT22;32724;51.094;6.996;2022-09-28T15:31:19;13.20;99.90
46976;DHT22;32724;51.094;6.996;2022-09-28T15:33:45;13.10;99.90
46976;DHT22;32724;51.094;6.996;2022-09-28T15:36:29;13.00;99.90
46976;DHT22;32724;51.094;6.996;2022-09-28T15:38:57;12.90;99.90
46976;DHT22;32724;51.094;6.996;2022-09-28T15:41:23;12.80;99.90
46976;DHT22;32724;51.094;6.996;2022-09-28T15:46:31;12.00;99.90
46976;DHT22;32724;51.094;6.996;2022-09-28T15:48:59;11.60;99.90
46976;DHT22;32724;51.094;6.996;2022-09-28T15:51:26;11.50;99.90
46976;DHT22;32724;51.094;6.996;2022-09-28T15:54:00;11.70;99.90
46976;DHT22;32724;51.094;6.996;2022-09-28T15:56:27;11.80;99.90
46976;DHT22;32724;51.094;6.996;2022-09-28T16:01:37;12.00;99.90
46976;DHT22;32724;51.094;6.996;2022-09-28T16:07:03;12.20;99.90
46976;DHT22;32724;51.094;6.996;2022-09-28T16:09:29;12.20;99.90
46976;DHT22;32724;51.094;6.996;2022-09-28T16:11:55;12.30;99.90
46976;DHT22;32724;51.094;6.996;2022-09-28T16:14:21;12.30;99.90
46976;DHT22;32724;51.094;6.996;2022-09-28T16:16:49;12.30;99.90
46976;DHT22;32724;51.094;6.996;2022-09-28T16:19:31;12.00;99.90
46976;DHT22;32724;51.094;6.996;2022-09-28T16:22:04;11.60;99.90
46976;DHT22;32724;51.094;6.996;2022-09-28T16:24:32;11.20;99.90
46976;DHT22;32724;51.094;6.996;2022-09-28T16:27:02;10.90;99.90
46976;DHT22;32724;51.094;6.996;2022-09-28T16:29:32;10.60;99.90
46976;DHT22;32724;51.094;6.996;2022-09-28T16:34:45;10.40;99.90
46976;DHT22;32724;51.094;6.996;2022-09-28T16:37:29;10.30;99.90
46976;DHT22;32724;51.094;6.996;2022-09-28T16:39:55;10.30;99.90
46976;DHT22;32724;51.094;6.996;2022-09-28T16:42:21;10.30;99.90
46976;DHT22;32724;51.094;6.996;2022-09-28T16:44:47;10.30;99.90
46976;DHT22;32724;51.094;6.996;2022-09-28T16:47:12;10.20;99.90
46976;DHT22;32724;51.094;6.996;2022-09-28T16:49:40;10.10;99.90
46976;DHT22;32724;51.094;6.996;2022-09-28T16:52:09;10.10;99.90
46976;DHT22;32724;51.094;6.996;2022-09-28T16:54:35;10.10;99.90
46976;DHT22;32724;51.094;6.996;2022-09-28T16:57:20;10.00;99.90
46976;DHT22;32724;51.094;6.996;2022-09-28T16:59:45;10.00;99.90
46976;DHT22;32724;51.094;6.996;2022-09-28T17:02:12;9.90;99.90
46976;DHT22;32724;51.094;6.996;2022-09-28T17:04:39;9.90;99.90
46976;DHT22;32724;51.094;6.996;2022-09-28T17:07:04;9.80;99.90
46976;DHT22;32724;51.094;6.996;2022-09-28T17:09:30;9.80;99.90
46976;DHT22;32724;51.094;6.996;2022-09-28T17:11:55;9.80;99.90
46976;DHT22;32724;51.094;6.996;2022-09-28T17:14:21;9.80;99.90
46976;DHT22;32724;51.094;6.996;2022-09-28T17:16:47;9.80;99.90
46976;DHT22;32724;51.094;6.996;2022-09-28T17:19:22;9.80;99.90
46976;DHT22;32724;51.094;6.996;2022-09-28T17:21:48;9.80;99.90
46976;DHT22;32724;51.094;6.996;2022-09-28T17:24:14;9.70;99.90
46976;DHT22;32724;51.094;6.996;2022-09-28T17:26:40;9.70;99.90
46976;DHT22;32724;51.094;6.996;2022-09-28T17:29:08;9.60;99.90
46976;DHT22;32724;51.094;6.996;2022-09-28T17:31:38;9.60;99.90
46976;DHT22;32724;51.094;6.996;2022-09-28T17:34:04;9.50;99.90
46976;DHT22;32724;51.094;6.996;2022-09-28T17:36:29;9.50;99.90
46976;DHT22;32724;51.094;6.996;2022-09-28T17:38:55;9.50;99.90
46976;DHT22;32724;51.094;6.996;2022-09-28T17:41:21;9.50;99.90
46976;DHT22;32724;51.094;6.996;2022-09-28T17:43:47;9.50;99.90
46976;DHT22;32724;51.094;6.996;2022-09-28T17:48:41;9.40;99.90
46976;DHT22;32724;51.094;6.996;2022-09-28T17:51:10;9.30;99.90
46976;DHT22;32724;51.094;6.996;2022-09-28T17:53:36;9.30;99.90
46976;DHT22;32724;51.094;6.996;2022-09-28T17:56:01;9.00;99.90
46976;DHT22;32724;51.094;6.996;2022-09-28T17:58:27;9.00;99.90
46976;DHT22;32724;51.094;6.996;2022-09-28T18:00:52;9.00;99.90
46976;DHT22;32724;51.094;6.996;2022-09-28T18:03:19;9.00;99.90
46976;DHT22;32724;51.094;6.996;2022-09-28T18:05:45;9.00;99.90
46976;DHT22;32724;51.094;6.996;2022-09-28T18:08:13;8.90;99.90
46976;DHT22;32724;51.094;6.996;2022-09-28T18:10:39;8.90;99.90
46976;DHT22;32724;51.094;6.996;2022-09-28T18:13:05;8.90;99.90
46976;DHT22;32724;51.094;6.996;2022-09-28T18:15:30;8.90;99.90
46976;DHT22;32724;51.094;6.996;2022-09-28T18:17:56;8.90;99.90
46976;DHT22;32724;51.094;6.996;2022-09-28T18:20:21;9.00;99.90
46976;DHT22;32724;51.094;6.996;2022-09-28T18:22:46;9.00;99.90
46976;DHT22;32724;51.094;6.996;2022-09-28T18:25:12;8.90;99.90
46976;DHT22;32724;51.094;6.996;2022-09-28T18:27:37;8.90;99.90